createdAt,value
2023-01-22T09:06:27.045Z,2.25
2023-01-22T09:09:12.831Z,2.03
2023-01-22T09:11:58.056Z,2.10
2023-01-22T09:14:42.963Z,1.90
2023-01-22T09:17:28.730Z,2.17
2023-01-22T09:20:14.693Z,2.40
2023-01-22T09:22:59.965Z,2.00
2023-01-22T09:25:45.204Z,2.30
2023-01-22T09:28:30.379Z,1.90
2023-01-22T09:31:15.917Z,1.92
2023-01-22T09:34:01.775Z,2.17
2023-01-22T09:36:47.132Z,2.28
2023-01-22T09:39:32.504Z,2.33
2023-01-22T09:42:23.629Z,1.97
2023-01-22T09:45:15.116Z,2.38
2023-01-22T09:48:05.063Z,1.83
2023-01-22T09:50:50.947Z,1.90
2023-01-22T09:53:36.143Z,1.92
2023-01-22T09:56:27.440Z,1.80
2023-01-22T09:59:18.753Z,2.03
2023-01-22T10:02:18.336Z,1.55
2023-01-22T10:05:17.806Z,1.95
2023-01-22T10:08:12.754Z,1.80
2023-01-22T10:11:01.009Z,2.00
2023-01-22T10:13:51.301Z,1.92
2023-01-22T10:16:37.032Z,1.92
2023-01-22T10:19:29.434Z,2.13
2023-01-22T10:22:23.241Z,2.08
2023-01-22T10:25:14.417Z,2.53
2023-01-22T10:28:01.139Z,2.28
2023-01-22T10:30:48.235Z,2.00
2023-01-22T10:33:38.932Z,2.63
2023-01-22T10:36:24.741Z,2.50
2023-01-22T10:39:13.564Z,2.37
2023-01-22T10:42:02.430Z,2.97
2023-01-22T10:44:47.665Z,2.95
2023-01-22T10:47:33.328Z,2.33
2023-01-22T10:50:19.754Z,2.97
2023-01-22T10:53:17.673Z,3.17
2023-01-22T10:56:07.789Z,2.60
2023-01-22T10:58:55.047Z,2.90
2023-01-22T11:01:41.831Z,2.60
2023-01-22T11:04:30.747Z,2.63
2023-01-22T11:07:22.773Z,2.60
2023-01-22T11:10:14.823Z,3.10
2023-01-22T11:13:35.432Z,2.83
2023-01-22T11:16:25.190Z,2.72
2023-01-22T11:19:21.639Z,3.45
2023-01-22T11:22:34.943Z,3.30
2023-01-22T11:25:20.689Z,3.05
2023-01-22T11:28:19.549Z,3.00
2023-01-22T11:31:35.118Z,2.85
2023-01-22T11:34:53.212Z,3.70
2023-01-22T11:38:03.694Z,3.03
2023-01-22T11:41:05.125Z,3.78
2023-01-22T11:44:00.031Z,3.65
2023-01-22T11:47:12.520Z,3.80
2023-01-22T11:50:08.406Z,3.65
2023-01-22T11:53:36.703Z,3.40
2023-01-22T11:56:50.897Z,3.58
2023-01-22T12:00:01.276Z,3.00
2023-01-22T12:03:04.664Z,3.15
2023-01-22T12:06:17.797Z,3.78
2023-01-22T12:09:06.253Z,4.73
2023-01-22T12:12:16.299Z,5.20
2023-01-22T12:15:34.040Z,4.47
2023-01-22T12:18:37.702Z,3.95
2023-01-22T12:21:51.540Z,5.15
2023-01-22T12:25:14.193Z,4.27
2023-01-22T12:28:08.775Z,4.03
2023-01-22T12:31:01.283Z,4.28
2023-01-22T12:33:46.960Z,3.88
2023-01-22T12:36:33.335Z,3.85
2023-01-22T12:39:27.075Z,3.40
2023-01-22T12:42:26.412Z,3.60
2023-01-22T12:45:25.146Z,4.28
2023-01-22T12:48:38.095Z,4.05
2023-01-22T12:51:47.972Z,4.38
2023-01-22T12:54:36.119Z,4.30
2023-01-22T12:57:26.225Z,6.20
2023-01-22T13:00:34.479Z,7.57
2023-01-22T13:03:31.808Z,9.10
2023-01-22T13:06:29.174Z,10.63
2023-01-22T13:09:26.275Z,10.70
2023-01-22T13:12:27.000Z,11.52
2023-01-22T13:15:21.214Z,14.80
2023-01-22T13:18:19.093Z,20.60
2023-01-22T13:21:10.958Z,19.00
2023-01-22T13:24:03.405Z,18.17
2023-01-22T13:27:00.342Z,18.35
2023-01-22T13:29:46.505Z,19.38
2023-01-22T13:32:32.285Z,18.98
2023-01-22T13:35:19.788Z,17.67
2023-01-22T13:38:05.561Z,19.07
2023-01-22T13:40:59.479Z,19.35
2023-01-22T13:43:45.156Z,19.33
2023-01-22T13:46:30.850Z,19.25
2023-01-22T13:49:21.583Z,19.33
2023-01-22T13:52:14.087Z,18.80
2023-01-22T13:55:05.391Z,18.90
2023-01-22T13:57:54.140Z,19.40
2023-01-22T14:00:39.661Z,17.25
2023-01-22T14:03:27.239Z,19.10
2023-01-22T14:06:15.182Z,16.60
2023-01-22T14:09:00.508Z,17.48
2023-01-22T14:11:45.556Z,16.60
2023-01-22T14:14:40.040Z,18.80
2023-01-22T14:17:30.074Z,40.05
2023-01-22T14:20:15.820Z,38.67
2023-01-22T14:23:01.475Z,35.33
2023-01-22T14:25:50.592Z,30.20
2023-01-22T14:28:37.686Z,27.98
2023-01-22T14:31:23.051Z,27.23
2023-01-22T14:34:11.164Z,23.17
2023-01-22T14:36:56.447Z,22.38
2023-01-22T14:39:42.229Z,22.27
2023-01-22T14:42:28.159Z,19.95
2023-01-22T14:45:16.695Z,18.95
2023-01-22T14:48:04.148Z,18.33
2023-01-22T14:50:49.959Z,17.92
2023-01-22T14:53:35.445Z,17.33
2023-01-22T14:56:20.590Z,16.60
2023-01-22T14:59:05.790Z,16.58
2023-01-22T15:01:50.782Z,15.93
2023-01-22T15:04:39.737Z,15.10
2023-01-22T15:07:25.427Z,14.38
2023-01-22T15:10:11.609Z,14.27
2023-01-22T15:12:56.844Z,14.68
2023-01-22T15:15:42.573Z,13.87
2023-01-22T15:18:28.106Z,13.57
2023-01-22T15:21:13.664Z,13.32
2023-01-22T15:24:01.079Z,13.30
2023-01-22T15:26:46.348Z,12.57
2023-01-22T15:29:31.948Z,12.80
2023-01-22T15:32:17.348Z,12.10
2023-01-22T15:35:03.113Z,12.43
2023-01-22T15:37:48.588Z,11.63
2023-01-22T15:40:36.910Z,11.50
2023-01-22T15:43:22.042Z,10.53
2023-01-22T15:46:07.321Z,10.02
2023-01-22T15:48:54.876Z,9.57
2023-01-22T15:51:41.552Z,8.93
2023-01-22T15:54:27.168Z,8.60
2023-01-22T15:57:13.743Z,9.30
2023-01-22T15:59:59.143Z,9.25
2023-01-22T16:02:44.858Z,8.73
2023-01-22T16:05:30.319Z,9.10
2023-01-22T16:08:16.193Z,9.20
2023-01-22T16:11:01.857Z,7.50
2023-01-22T16:13:48.296Z,8.20
2023-01-22T16:16:38.363Z,8.30
2023-01-22T16:19:23.604Z,7.82
2023-01-22T16:22:09.065Z,7.82
2023-01-22T16:24:54.382Z,7.57
2023-01-22T16:27:39.931Z,7.53
2023-01-22T16:30:25.732Z,7.20
2023-01-22T16:33:24.927Z,6.95
2023-01-22T16:36:13.468Z,7.95
2023-01-22T16:38:58.640Z,7.07
2023-01-22T16:41:47.496Z,6.45
2023-01-22T16:44:33.789Z,6.20
2023-01-22T16:47:20.276Z,5.78
2023-01-22T16:50:06.063Z,5.30
2023-01-22T16:52:51.462Z,5.43
2023-01-22T16:55:36.832Z,5.35
2023-01-22T16:58:22.309Z,5.50
2023-01-22T17:01:11.641Z,5.35
2023-01-22T17:03:57.299Z,5.55
2023-01-22T17:06:50.649Z,5.17
2023-01-22T17:09:36.346Z,5.68
2023-01-22T17:12:21.366Z,4.97
2023-01-22T17:15:07.257Z,5.13
2023-01-22T17:17:52.891Z,4.78
2023-01-22T17:20:38.082Z,4.80
2023-01-22T17:23:23.453Z,5.55
2023-01-22T17:26:11.678Z,4.88
2023-01-22T17:28:57.599Z,4.57
2023-01-22T17:31:43.143Z,4.63
2023-01-22T17:34:28.485Z,4.93
2023-01-22T17:37:13.975Z,4.47
2023-01-22T17:39:59.361Z,5.05
2023-01-22T17:42:44.402Z,4.55
2023-01-22T17:45:29.844Z,4.55
2023-01-22T17:48:15.923Z,4.43
2023-01-22T17:51:06.330Z,4.13
2023-01-22T17:53:52.668Z,3.90
2023-01-22T17:56:43.014Z,4.10
2023-01-22T17:59:28.416Z,3.90
2023-01-22T18:02:13.892Z,3.87
2023-01-22T18:04:59.448Z,3.92
2023-01-22T18:07:44.518Z,3.88
2023-01-22T18:10:30.845Z,3.80
2023-01-22T18:13:16.222Z,4.50
2023-01-22T18:16:02.593Z,4.50
2023-01-22T18:18:47.963Z,4.30
2023-01-22T18:21:37.505Z,4.55
2023-01-22T18:24:24.160Z,4.70
2023-01-22T18:27:09.619Z,4.88
2023-01-22T18:29:55.128Z,4.80
2023-01-22T18:32:40.455Z,5.10
2023-01-22T18:35:27.275Z,4.68
2023-01-22T18:38:13.173Z,4.78
2023-01-22T18:41:14.129Z,4.93
2023-01-22T18:44:00.855Z,5.00
2023-01-22T18:46:48.562Z,5.10
2023-01-22T18:49:33.946Z,5.00
2023-01-22T18:52:19.294Z,4.88
2023-01-22T18:55:05.149Z,5.50
2023-01-22T18:57:54.474Z,5.17
2023-01-22T19:00:39.911Z,5.05
2023-01-22T19:03:26.668Z,4.78
2023-01-22T19:06:16.019Z,4.85
2023-01-22T19:09:06.160Z,5.38
2023-01-22T19:11:52.672Z,4.80
2023-01-22T19:14:38.023Z,15.20
2023-01-22T19:17:25.645Z,9.52
2023-01-22T19:20:13.100Z,7.05
2023-01-22T19:23:00.157Z,5.85
2023-01-22T19:25:45.528Z,6.57
2023-01-22T19:28:30.783Z,6.75
2023-01-22T19:31:22.668Z,6.35
2023-01-22T19:34:10.910Z,6.03
2023-01-22T19:37:01.186Z,6.05
2023-01-22T19:39:46.829Z,6.20
2023-01-22T19:42:32.217Z,6.50
2023-01-22T19:45:17.980Z,6.55
2023-01-22T19:48:06.811Z,7.28
2023-01-22T19:51:00.559Z,8.02
2023-01-22T19:53:47.725Z,10.67
2023-01-22T19:56:35.496Z,21.33
2023-01-22T19:59:24.696Z,18.63
2023-01-22T20:02:14.097Z,16.73
2023-01-22T20:04:59.947Z,15.43
2023-01-22T20:07:45.402Z,13.97
2023-01-22T20:10:32.765Z,12.55
2023-01-22T20:13:17.937Z,12.18
2023-01-22T20:16:04.531Z,11.18
2023-01-22T20:18:51.497Z,18.25
2023-01-22T20:21:36.684Z,16.13
2023-01-22T20:24:21.921Z,13.50
2023-01-22T20:27:08.432Z,12.88
2023-01-22T20:29:53.317Z,12.90
2023-01-22T20:32:38.584Z,11.95
2023-01-22T20:35:23.940Z,11.53
2023-01-22T20:38:09.384Z,25.25
2023-01-22T20:40:54.872Z,18.45
2023-01-22T20:43:41.847Z,20.10
2023-01-22T20:46:27.547Z,18.98
2023-01-22T20:49:13.589Z,19.40
2023-01-22T20:52:01.168Z,19.30
2023-01-22T20:55:00.814Z,18.73
2023-01-22T20:57:46.992Z,18.25
2023-01-22T21:00:32.465Z,19.08
2023-01-22T21:03:17.792Z,17.67
2023-01-22T21:06:05.526Z,17.60
2023-01-22T21:08:53.655Z,17.05
2023-01-22T21:11:41.347Z,16.90
2023-01-22T21:14:26.949Z,16.85
2023-01-22T21:17:12.370Z,16.87
2023-01-22T21:19:58.010Z,16.80
2023-01-22T21:22:43.486Z,16.70
2023-01-22T21:25:29.015Z,16.98
2023-01-22T21:28:15.086Z,15.88
2023-01-22T21:31:14.716Z,15.17
2023-01-22T21:34:04.843Z,15.63
2023-01-22T21:36:58.321Z,16.33
2023-01-22T21:39:45.046Z,15.07
2023-01-22T21:42:48.843Z,15.65
2023-01-22T21:45:52.553Z,14.47
2023-01-22T21:48:37.843Z,15.00
2023-01-22T21:51:28.895Z,15.10
2023-01-22T21:54:17.166Z,14.45
2023-01-22T21:57:03.104Z,13.40
2023-01-22T21:59:48.322Z,12.67
2023-01-22T22:02:33.562Z,11.15
2023-01-22T22:05:18.957Z,9.63
2023-01-22T22:08:04.290Z,9.55
2023-01-22T22:10:50.480Z,9.25
2023-01-22T22:13:36.269Z,8.53
2023-01-22T22:16:21.827Z,9.07
2023-01-22T22:19:07.606Z,8.95
2023-01-22T22:21:52.934Z,7.53
2023-01-22T22:24:38.439Z,8.65
2023-01-22T22:27:26.423Z,8.13
2023-01-22T22:30:13.197Z,6.93
2023-01-22T22:32:58.962Z,7.57
2023-01-22T22:35:47.834Z,7.47
2023-01-22T22:38:33.697Z,7.20
2023-01-22T22:41:23.698Z,7.03
2023-01-22T22:44:10.454Z,6.68
2023-01-22T22:46:55.919Z,6.88
2023-01-22T22:49:41.377Z,6.50
2023-01-22T22:52:26.801Z,6.70
2023-01-22T22:55:11.891Z,7.00
2023-01-22T22:57:57.212Z,7.00
2023-01-22T23:00:42.901Z,6.90
2023-01-22T23:03:28.339Z,5.93
2023-01-22T23:06:16.635Z,6.45
2023-01-22T23:09:05.685Z,6.60
2023-01-22T23:11:53.335Z,6.90
2023-01-22T23:14:38.587Z,6.40
2023-01-22T23:17:23.824Z,8.13
2023-01-22T23:20:10.046Z,6.70
2023-01-22T23:22:58.223Z,6.17
2023-01-22T23:25:44.253Z,6.55
2023-01-22T23:28:29.723Z,6.00
2023-01-22T23:31:17.468Z,6.10
2023-01-22T23:34:03.960Z,6.03
2023-01-22T23:36:50.627Z,5.60
2023-01-22T23:39:37.371Z,6.15
2023-01-22T23:42:23.169Z,5.85
2023-01-22T23:45:11.668Z,5.60
